createdAt,value
2022-11-15T00:01:08.002Z,6.88
2022-11-15T00:03:35.811Z,7.03
2022-11-15T00:06:04.865Z,7.40
2022-11-15T00:08:33.505Z,7.03
2022-11-15T00:11:02.826Z,7.80
2022-11-15T00:13:32.050Z,7.43
2022-11-15T00:16:02.427Z,7.00
2022-11-15T00:18:31.312Z,6.85
2022-11-15T00:21:06.071Z,6.97
2022-11-15T00:23:34.687Z,7.45
2022-11-15T00:26:02.592Z,6.65
2022-11-15T00:28:30.506Z,7.28
2022-11-15T00:31:03.917Z,7.35
2022-11-15T00:33:32.931Z,6.80
2022-11-15T00:36:05.501Z,7.05
2022-11-15T00:38:34.707Z,6.70
2022-11-15T00:41:07.898Z,6.72
2022-11-15T00:43:37.533Z,6.47
2022-11-15T00:46:08.965Z,6.20
2022-11-15T00:48:36.894Z,7.18
2022-11-15T00:51:04.820Z,6.80
2022-11-15T00:53:32.900Z,7.05
2022-11-15T00:56:01.226Z,6.57
2022-11-15T00:58:29.028Z,6.57
2022-11-15T01:00:56.840Z,6.30
2022-11-15T01:03:26.004Z,6.20
2022-11-15T01:05:53.780Z,6.75
2022-11-15T01:08:21.630Z,6.07
2022-11-15T01:10:49.727Z,6.68
2022-11-15T01:13:17.518Z,6.80
2022-11-15T01:15:45.389Z,6.20
2022-11-15T01:18:13.284Z,6.40
2022-11-15T01:20:43.734Z,6.43
2022-11-15T01:23:11.883Z,6.05
2022-11-15T01:25:39.846Z,6.40
2022-11-15T01:28:07.681Z,6.40
2022-11-15T01:30:35.551Z,5.97
2022-11-15T01:33:03.367Z,6.17
2022-11-15T01:35:31.145Z,6.13
2022-11-15T01:38:00.285Z,6.28
2022-11-15T01:40:28.180Z,6.10
2022-11-15T01:42:55.944Z,5.50
2022-11-15T01:45:23.779Z,5.70
2022-11-15T01:47:55.237Z,5.53
2022-11-15T01:50:27.923Z,5.88
2022-11-15T01:52:56.119Z,5.85
2022-11-15T01:55:28.148Z,5.60
2022-11-15T01:58:03.834Z,5.37
2022-11-15T02:00:32.581Z,5.80
2022-11-15T02:03:00.434Z,5.68
2022-11-15T02:05:28.933Z,5.75
2022-11-15T02:07:56.996Z,5.50
2022-11-15T02:10:26.768Z,5.55
2022-11-15T02:12:57.568Z,5.78
2022-11-15T02:15:28.908Z,5.53
2022-11-15T02:18:13.380Z,5.13
2022-11-15T02:20:54.527Z,5.40
2022-11-15T02:23:52.568Z,5.07
2022-11-15T02:26:47.438Z,5.40
2022-11-15T02:29:22.981Z,5.47
2022-11-15T02:31:57.903Z,5.20
2022-11-15T02:34:33.291Z,5.20
2022-11-15T02:37:07.995Z,5.22
2022-11-15T02:39:40.654Z,4.93
2022-11-15T02:42:33.207Z,5.40
2022-11-15T02:45:05.547Z,5.25
2022-11-15T02:47:40.157Z,5.45
2022-11-15T02:50:11.870Z,5.78
2022-11-15T02:52:39.744Z,4.93
2022-11-15T02:55:22.714Z,5.28
2022-11-15T02:57:58.394Z,4.80
2022-11-15T03:00:26.366Z,5.22
2022-11-15T03:03:17.194Z,5.63
2022-11-15T03:05:54.442Z,4.95
2022-11-15T03:08:29.682Z,5.63
2022-11-15T03:11:05.392Z,5.15
2022-11-15T03:13:39.141Z,5.60
2022-11-15T03:16:11.454Z,5.13
2022-11-15T03:18:45.514Z,5.30
2022-11-15T03:21:16.001Z,5.20
2022-11-15T03:23:45.008Z,5.13
2022-11-15T03:26:16.490Z,5.53
2022-11-15T03:28:49.444Z,5.40
2022-11-15T03:31:38.837Z,5.60
2022-11-15T03:34:13.425Z,4.90
2022-11-15T03:36:41.510Z,5.63
2022-11-15T03:39:10.727Z,5.15
2022-11-15T03:41:44.976Z,4.90
2022-11-15T03:44:19.194Z,5.10
2022-11-15T03:46:52.334Z,5.40
2022-11-15T03:49:27.632Z,5.13
2022-11-15T03:51:58.152Z,4.60
2022-11-15T03:54:26.094Z,4.60
2022-11-15T03:56:53.973Z,5.35
2022-11-15T03:59:21.839Z,4.90
2022-11-15T04:01:49.659Z,4.90
2022-11-15T04:04:17.445Z,5.00
2022-11-15T04:06:46.846Z,5.00
2022-11-15T04:09:14.673Z,4.63
2022-11-15T04:11:42.458Z,4.90
2022-11-15T04:14:10.288Z,4.70
2022-11-15T04:16:43.531Z,5.20
2022-11-15T04:19:29.916Z,4.57
2022-11-15T04:22:16.462Z,5.13
2022-11-15T04:24:44.261Z,5.50
2022-11-15T04:27:13.661Z,4.82
2022-11-15T04:29:41.452Z,5.07
2022-11-15T04:32:09.421Z,5.10
2022-11-15T04:34:39.213Z,4.88
2022-11-15T04:37:13.471Z,4.65
2022-11-15T04:39:41.565Z,4.72
2022-11-15T04:42:09.478Z,4.72
2022-11-15T04:44:37.371Z,5.07
2022-11-15T04:47:05.350Z,4.78
2022-11-15T04:49:33.193Z,4.45
2022-11-15T04:52:01.183Z,4.82
2022-11-15T04:54:30.701Z,4.90
2022-11-15T04:56:58.470Z,4.57
2022-11-15T04:59:26.263Z,4.50
2022-11-15T05:01:54.048Z,4.75
2022-11-15T05:04:21.035Z,4.82
2022-11-15T05:06:53.453Z,4.80
2022-11-15T05:09:23.286Z,4.38
2022-11-15T05:11:52.418Z,4.60
2022-11-15T05:14:20.297Z,4.50
2022-11-15T05:16:48.108Z,4.67
2022-11-15T05:19:16.125Z,4.57
2022-11-15T05:21:44.615Z,4.35
2022-11-15T05:24:12.960Z,4.37
2022-11-15T05:26:40.770Z,4.38
2022-11-15T05:29:12.336Z,5.10
2022-11-15T05:31:43.126Z,4.82
2022-11-15T05:34:11.399Z,4.88
2022-11-15T05:36:40.747Z,5.22
2022-11-15T05:39:09.994Z,5.15
2022-11-15T05:41:41.314Z,5.18
2022-11-15T05:44:13.504Z,5.07
2022-11-15T05:46:42.461Z,4.83
2022-11-15T05:49:13.609Z,4.55
2022-11-15T05:51:43.789Z,4.55
2022-11-15T05:54:12.366Z,4.60
2022-11-15T05:56:40.417Z,4.50
2022-11-15T05:59:10.154Z,4.50
2022-11-15T06:01:38.237Z,4.83
2022-11-15T06:04:06.138Z,5.00
2022-11-15T06:06:33.982Z,4.45
2022-11-15T06:09:01.767Z,4.78
2022-11-15T06:11:29.881Z,4.18
2022-11-15T06:13:58.485Z,4.63
2022-11-15T06:16:27.587Z,4.78
2022-11-15T06:18:55.319Z,4.50
2022-11-15T06:21:23.806Z,4.30
2022-11-15T06:23:51.631Z,4.57
2022-11-15T06:26:19.405Z,4.90
2022-11-15T06:28:47.732Z,4.55
2022-11-15T06:31:15.573Z,4.20
2022-11-15T06:33:44.665Z,5.10
2022-11-15T06:36:17.866Z,4.75
2022-11-15T06:38:46.671Z,4.20
2022-11-15T06:41:15.824Z,5.07
2022-11-15T06:43:43.735Z,4.82
2022-11-15T06:46:11.929Z,4.90
2022-11-15T06:48:39.714Z,5.43
2022-11-15T06:51:09.147Z,4.85
2022-11-15T06:53:37.350Z,5.18
2022-11-15T06:56:07.435Z,5.20
2022-11-15T06:58:35.973Z,4.85
2022-11-15T07:01:06.120Z,5.10
2022-11-15T07:03:36.233Z,5.82
2022-11-15T07:06:07.569Z,5.90
2022-11-15T07:08:37.602Z,5.18
2022-11-15T07:11:07.387Z,5.60
2022-11-15T07:13:36.528Z,5.40
2022-11-15T07:16:05.330Z,5.27
2022-11-15T07:18:35.214Z,5.80
2022-11-15T07:21:04.360Z,5.57
2022-11-15T07:23:32.616Z,5.40
2022-11-15T07:26:02.190Z,5.60
2022-11-15T07:28:30.286Z,5.40
2022-11-15T07:30:58.662Z,6.10
2022-11-15T07:33:26.474Z,5.60
2022-11-15T07:35:54.227Z,5.07
2022-11-15T07:38:22.032Z,5.20
2022-11-15T07:40:57.377Z,5.25
2022-11-15T07:43:28.713Z,5.47
2022-11-15T07:45:59.333Z,5.40
2022-11-15T07:48:35.663Z,5.55
2022-11-15T07:51:14.316Z,5.35
2022-11-15T07:53:42.684Z,5.55
2022-11-15T07:56:10.974Z,5.47
2022-11-15T07:58:40.136Z,5.45
2022-11-15T08:01:08.913Z,6.65
2022-11-15T08:03:37.282Z,6.32
2022-11-15T08:06:05.694Z,6.22
2022-11-15T08:08:33.489Z,5.80
2022-11-15T08:11:01.596Z,5.38
2022-11-15T08:13:30.062Z,5.03
2022-11-15T08:16:01.520Z,5.70
2022-11-15T08:18:29.480Z,5.00
2022-11-15T08:21:01.839Z,5.05
2022-11-15T08:23:30.225Z,5.45
2022-11-15T08:26:02.865Z,4.65
2022-11-15T08:28:30.736Z,4.70
2022-11-15T08:30:58.504Z,4.85
2022-11-15T08:33:27.965Z,5.00
2022-11-15T08:35:58.277Z,4.63
2022-11-15T08:38:26.516Z,5.18
2022-11-15T08:40:55.274Z,5.10
2022-11-15T08:43:23.038Z,5.10
2022-11-15T08:45:50.790Z,5.28
2022-11-15T08:48:18.587Z,5.32
2022-11-15T08:50:47.713Z,4.70
2022-11-15T08:53:15.595Z,4.60
2022-11-15T08:55:43.785Z,4.40
2022-11-15T08:58:11.568Z,4.53
2022-11-15T09:00:39.348Z,5.07
2022-11-15T09:03:08.018Z,5.93
2022-11-15T09:05:38.551Z,4.32
2022-11-15T09:08:25.660Z,4.30
2022-11-15T09:10:55.650Z,4.45
2022-11-15T09:13:23.908Z,4.53
2022-11-15T09:15:51.661Z,4.40
2022-11-15T09:18:22.220Z,5.10
2022-11-15T09:20:50.256Z,4.55
2022-11-15T09:23:19.368Z,4.57
2022-11-15T09:25:47.141Z,4.88
2022-11-15T09:28:14.971Z,4.80
2022-11-15T09:30:42.721Z,4.25
2022-11-15T09:33:11.073Z,4.30
2022-11-15T09:35:39.607Z,4.45
2022-11-15T09:38:07.439Z,4.47
2022-11-15T09:40:39.386Z,6.07
2022-11-15T09:43:26.054Z,7.07
2022-11-15T09:46:08.834Z,4.97
2022-11-15T09:48:50.641Z,3.80
2022-11-15T09:51:26.714Z,3.85
2022-11-15T09:56:53.684Z,4.53
2022-11-15T09:59:50.136Z,4.15
2022-11-15T10:02:33.359Z,4.30
2022-11-15T10:05:02.122Z,4.80
2022-11-15T10:07:41.120Z,4.53
2022-11-15T10:10:25.613Z,4.70
2022-11-15T10:12:55.502Z,3.83
2022-11-15T10:15:24.252Z,3.40
2022-11-15T10:18:07.899Z,4.00
2022-11-15T10:20:44.478Z,17.77
2022-11-15T10:23:15.192Z,6.35
2022-11-15T10:25:44.383Z,3.65
2022-11-15T10:28:17.919Z,3.40
2022-11-15T10:30:47.341Z,3.45
2022-11-15T10:33:25.661Z,3.03
2022-11-15T10:36:17.588Z,3.10
2022-11-15T10:39:00.779Z,2.92
2022-11-15T10:41:35.498Z,3.30
2022-11-15T10:44:14.400Z,3.40
2022-11-15T10:46:47.002Z,3.40
2022-11-15T10:49:17.265Z,3.00
2022-11-15T10:51:48.667Z,3.55
2022-11-15T10:54:25.675Z,3.33
2022-11-15T10:56:55.355Z,3.38
2022-11-15T10:59:28.894Z,3.20
2022-11-15T11:01:57.216Z,3.23
2022-11-15T11:04:25.137Z,2.88
2022-11-15T11:06:55.118Z,2.83
2022-11-15T11:09:29.973Z,2.50
2022-11-15T11:11:57.821Z,2.40
2022-11-15T11:14:29.089Z,2.30
2022-11-15T11:17:04.337Z,2.60
2022-11-15T11:19:50.157Z,2.30
2022-11-15T11:22:25.272Z,2.30
2022-11-15T11:25:06.295Z,2.40
2022-11-15T11:27:45.080Z,2.20
2022-11-15T11:30:19.930Z,2.35
2022-11-15T11:33:17.140Z,2.70
2022-11-15T11:35:52.913Z,2.50
2022-11-15T11:38:36.487Z,2.13
2022-11-15T11:41:16.326Z,2.23
2022-11-15T11:43:53.469Z,2.20
2022-11-15T11:46:48.319Z,2.00
2022-11-15T11:49:21.317Z,2.17
2022-11-15T11:51:53.609Z,1.97
2022-11-15T11:54:27.646Z,2.30
2022-11-15T11:56:59.281Z,2.00
2022-11-15T11:59:34.434Z,2.10
2022-11-15T12:02:14.746Z,1.92
2022-11-15T12:04:46.823Z,1.90
2022-11-15T12:07:19.612Z,1.80
2022-11-15T12:09:56.769Z,2.20
2022-11-15T12:12:33.663Z,2.03
2022-11-15T12:15:05.355Z,2.03
2022-11-15T12:17:34.620Z,1.98
2022-11-15T12:20:07.349Z,1.92
2022-11-15T12:22:43.406Z,1.92
2022-11-15T12:25:20.130Z,2.05
2022-11-15T12:27:52.198Z,1.90
2022-11-15T12:30:22.591Z,1.90
2022-11-15T12:32:55.576Z,2.00
2022-11-15T12:35:27.790Z,1.60
2022-11-15T12:37:59.528Z,1.80
2022-11-15T12:40:33.982Z,1.95
2022-11-15T12:43:43.946Z,1.90
2022-11-15T12:46:23.728Z,2.30
2022-11-15T12:48:56.032Z,2.22
2022-11-15T12:51:39.828Z,2.10
2022-11-15T12:54:40.944Z,2.20
2022-11-15T12:57:39.634Z,2.10
2022-11-15T13:00:41.246Z,2.25
2022-11-15T13:03:25.275Z,2.20
2022-11-15T13:06:07.901Z,2.40
2022-11-15T13:08:49.423Z,2.40
2022-11-15T13:11:46.652Z,2.77
2022-11-15T13:14:46.762Z,2.30
2022-11-15T13:17:45.254Z,2.17
2022-11-15T13:20:29.129Z,2.60
2022-11-15T13:23:09.401Z,2.35
2022-11-15T13:26:11.144Z,2.42
2022-11-15T13:28:41.179Z,2.28
2022-11-15T13:31:28.838Z,1.85
2022-11-15T13:33:59.502Z,2.35
2022-11-15T13:36:31.116Z,2.08
2022-11-15T13:39:03.414Z,2.85
2022-11-15T13:41:33.256Z,2.30
2022-11-15T13:44:03.063Z,2.60
2022-11-15T13:46:32.049Z,2.50
2022-11-15T13:49:01.434Z,2.80
2022-11-15T13:51:38.997Z,2.80
2022-11-15T13:54:20.870Z,2.30
2022-11-15T13:56:51.582Z,2.58
2022-11-15T13:59:26.752Z,2.50
2022-11-15T14:01:55.555Z,2.60
2022-11-15T14:04:26.982Z,2.67
2022-11-15T14:07:00.714Z,2.80
2022-11-15T14:09:38.210Z,2.47
2022-11-15T14:12:25.706Z,2.55
2022-11-15T14:14:53.978Z,2.55
2022-11-15T14:17:34.500Z,3.00
2022-11-15T14:20:02.378Z,2.50
2022-11-15T14:22:31.433Z,3.10
2022-11-15T14:25:25.107Z,3.40
2022-11-15T14:28:11.858Z,3.33
2022-11-15T14:30:40.558Z,3.70
2022-11-15T14:33:21.165Z,3.40
2022-11-15T14:35:49.326Z,3.60
2022-11-15T14:38:17.117Z,4.28
2022-11-15T14:40:46.520Z,4.15
2022-11-15T14:43:15.737Z,4.23
2022-11-15T14:45:43.524Z,4.50
2022-11-15T14:48:11.394Z,4.80
2022-11-15T14:50:39.676Z,5.28
2022-11-15T14:53:08.070Z,4.82
2022-11-15T14:55:37.324Z,5.22
2022-11-15T14:58:08.829Z,5.40
2022-11-15T15:00:37.773Z,5.88
2022-11-15T15:03:07.015Z,5.32
2022-11-15T15:05:36.837Z,5.65
2022-11-15T15:08:05.228Z,5.65
2022-11-15T15:10:40.666Z,6.07
2022-11-15T15:13:18.454Z,5.60
2022-11-15T15:15:46.316Z,5.40
2022-11-15T15:18:14.089Z,5.65
2022-11-15T15:20:43.788Z,5.78
2022-11-15T15:23:17.937Z,6.07
2022-11-15T15:25:47.032Z,5.60
2022-11-15T15:28:16.351Z,5.88
2022-11-15T15:30:44.518Z,6.05
2022-11-15T15:33:12.344Z,6.13
2022-11-15T15:35:40.174Z,6.07
2022-11-15T15:38:07.992Z,6.23
2022-11-15T15:40:35.813Z,6.20
2022-11-15T15:43:03.578Z,6.35
2022-11-15T15:45:34.002Z,6.70
2022-11-15T15:48:02.045Z,6.97
2022-11-15T15:50:31.540Z,15.82
2022-11-15T15:53:01.064Z,10.75
2022-11-15T15:55:29.178Z,7.80
2022-11-15T15:57:57.085Z,7.85
2022-11-15T16:00:26.210Z,7.75
2022-11-15T16:02:55.609Z,7.45
2022-11-15T16:05:23.765Z,7.18
2022-11-15T16:07:51.652Z,8.20
2022-11-15T16:10:23.616Z,8.20
2022-11-15T16:12:51.800Z,9.05
2022-11-15T16:15:20.230Z,8.80
2022-11-15T16:17:54.267Z,7.90
2022-11-15T16:20:33.095Z,7.72
2022-11-15T16:23:07.207Z,7.07
2022-11-15T16:25:42.265Z,7.35
2022-11-15T16:28:19.917Z,7.10
2022-11-15T16:30:51.100Z,6.88
2022-11-15T16:33:23.270Z,7.20
2022-11-15T16:35:52.529Z,7.47
2022-11-15T16:38:20.403Z,8.00
2022-11-15T16:40:48.491Z,7.90
2022-11-15T16:43:16.869Z,8.50
2022-11-15T16:45:44.799Z,8.40
2022-11-15T16:48:24.073Z,8.38
2022-11-15T16:50:57.121Z,8.53
2022-11-15T16:53:25.549Z,8.13
2022-11-15T16:55:53.575Z,7.85
2022-11-15T16:58:23.000Z,7.80
2022-11-15T17:00:53.544Z,8.65
2022-11-15T17:03:22.151Z,7.40
2022-11-15T17:05:50.485Z,8.35
2022-11-15T17:08:20.751Z,7.90
2022-11-15T17:10:48.624Z,7.47
2022-11-15T17:13:16.466Z,8.02
2022-11-15T17:15:44.501Z,8.45
2022-11-15T17:18:14.316Z,9.18
2022-11-15T17:20:43.206Z,9.07
2022-11-15T17:23:14.440Z,8.70
2022-11-15T17:25:43.954Z,8.48
2022-11-15T17:28:12.150Z,8.98
2022-11-15T17:30:43.124Z,8.40
2022-11-15T17:33:11.024Z,8.75
2022-11-15T17:35:38.993Z,9.07
2022-11-15T17:38:06.930Z,9.18
2022-11-15T17:40:34.698Z,8.68
2022-11-15T17:43:05.662Z,9.03
2022-11-15T17:45:33.638Z,8.80
2022-11-15T17:48:01.531Z,8.95
2022-11-15T17:50:29.325Z,9.15
2022-11-15T17:52:57.677Z,9.98
2022-11-15T17:55:25.535Z,9.35
2022-11-15T17:57:53.390Z,9.00
2022-11-15T18:00:22.877Z,10.77
2022-11-15T18:02:50.697Z,11.63
2022-11-15T18:05:18.532Z,10.48
2022-11-15T18:07:46.306Z,11.87
2022-11-15T18:10:14.095Z,10.50
2022-11-15T18:12:42.038Z,11.55
2022-11-15T18:15:10.593Z,12.13
2022-11-15T18:17:39.720Z,11.82
2022-11-15T18:20:08.341Z,12.60
2022-11-15T18:22:36.161Z,11.73
2022-11-15T18:25:04.026Z,13.32
2022-11-15T18:27:32.127Z,12.03
2022-11-15T18:30:00.113Z,12.43
2022-11-15T18:32:27.980Z,12.43
2022-11-15T18:34:57.170Z,12.98
2022-11-15T18:37:25.002Z,13.43
2022-11-15T18:39:54.196Z,12.77
2022-11-15T18:42:22.235Z,12.82
2022-11-15T18:44:50.055Z,13.38
2022-11-15T18:47:17.830Z,12.88
2022-11-15T18:49:45.809Z,13.10
2022-11-15T18:52:15.027Z,13.15
2022-11-15T18:54:42.790Z,12.55
2022-11-15T18:57:10.702Z,14.52
2022-11-15T18:59:39.138Z,13.70
2022-11-15T19:02:07.204Z,13.43
2022-11-15T19:04:35.015Z,13.75
2022-11-15T19:07:02.908Z,13.45
2022-11-15T19:09:32.716Z,12.57
2022-11-15T19:12:00.647Z,13.90
2022-11-15T19:14:29.036Z,13.27
2022-11-15T19:16:57.090Z,12.98
2022-11-15T19:19:27.666Z,13.05
2022-11-15T19:21:56.957Z,12.88
2022-11-15T19:24:24.821Z,13.80
2022-11-15T19:26:54.773Z,13.10
2022-11-15T19:29:22.593Z,13.45
2022-11-15T19:31:50.650Z,13.38
2022-11-15T19:34:18.871Z,14.70
2022-11-15T19:36:46.702Z,13.93
2022-11-15T19:39:17.907Z,13.75
2022-11-15T19:41:46.528Z,14.68
2022-11-15T19:44:16.114Z,12.77
2022-11-15T19:46:44.183Z,13.52
2022-11-15T19:49:12.232Z,14.52
2022-11-15T19:51:42.308Z,13.88
2022-11-15T19:54:10.727Z,15.90
2022-11-15T19:56:39.677Z,16.00
2022-11-15T19:59:07.491Z,14.55
2022-11-15T20:01:39.136Z,14.85
2022-11-15T20:04:10.077Z,14.38
2022-11-15T20:06:40.265Z,14.00
2022-11-15T20:09:08.341Z,14.13
2022-11-15T20:11:38.034Z,13.95
2022-11-15T20:14:08.838Z,14.93
2022-11-15T20:16:38.018Z,14.23
2022-11-15T20:19:07.171Z,13.23
2022-11-15T20:21:35.292Z,14.25
2022-11-15T20:24:03.432Z,16.40
2022-11-15T20:26:32.151Z,13.65
2022-11-15T20:29:03.001Z,15.18
2022-11-15T20:31:31.732Z,14.27
2022-11-15T20:34:01.287Z,12.73
2022-11-15T20:36:29.680Z,12.25
2022-11-15T20:38:59.083Z,12.48
2022-11-15T20:41:27.317Z,12.45
2022-11-15T20:43:55.156Z,12.30
2022-11-15T20:46:23.001Z,12.80
2022-11-15T20:48:50.891Z,12.07
2022-11-15T20:51:20.539Z,11.95
2022-11-15T20:53:49.069Z,12.27
2022-11-15T20:56:19.495Z,12.20
2022-11-15T20:58:50.033Z,10.90
2022-11-15T21:01:22.941Z,15.27
2022-11-15T21:03:51.470Z,12.10
2022-11-15T21:06:20.966Z,20.57
2022-11-15T21:09:07.180Z,14.98
2022-11-15T21:11:53.088Z,11.68
2022-11-15T21:14:21.172Z,11.05
2022-11-15T21:16:48.986Z,11.63
2022-11-15T21:19:16.960Z,10.60
2022-11-15T21:21:46.424Z,11.40
2022-11-15T21:24:14.421Z,12.57
2022-11-15T21:26:42.529Z,12.07
2022-11-15T21:29:10.417Z,11.00
2022-11-15T21:31:38.300Z,12.35
2022-11-15T21:34:07.226Z,12.13
2022-11-15T21:36:35.059Z,11.57
2022-11-15T21:39:04.886Z,12.85
2022-11-15T21:41:32.741Z,11.35
2022-11-15T21:44:01.102Z,11.30
2022-11-15T21:46:30.040Z,12.25
2022-11-15T21:48:58.938Z,11.57
2022-11-15T21:51:26.903Z,11.80
2022-11-15T21:53:56.689Z,11.40
2022-11-15T21:56:27.125Z,10.45
2022-11-15T21:58:55.929Z,11.50
2022-11-15T22:01:42.074Z,11.80
2022-11-15T22:04:10.093Z,11.00
2022-11-15T22:06:37.876Z,11.00
2022-11-15T22:09:06.833Z,10.93
2022-11-15T22:11:35.989Z,11.53
2022-11-15T22:14:04.089Z,10.48
2022-11-15T22:16:32.796Z,10.88
2022-11-15T22:19:00.836Z,10.75
2022-11-15T22:21:28.815Z,10.30
2022-11-15T22:23:56.781Z,10.90
2022-11-15T22:26:25.050Z,10.48
2022-11-15T22:28:54.312Z,11.32
2022-11-15T22:31:22.211Z,9.95
2022-11-15T22:33:50.120Z,10.70
2022-11-15T22:36:18.150Z,10.45
2022-11-15T22:38:46.060Z,9.70
2022-11-15T22:41:13.982Z,9.57
2022-11-15T22:43:42.071Z,9.57
2022-11-15T22:46:12.076Z,9.33
2022-11-15T22:48:40.334Z,8.85
2022-11-15T22:51:09.051Z,9.00
2022-11-15T22:53:37.400Z,8.57
2022-11-15T22:56:07.221Z,9.07
2022-11-15T22:58:35.452Z,9.00
2022-11-15T23:01:05.106Z,8.43
2022-11-15T23:03:35.340Z,9.40
2022-11-15T23:06:05.249Z,9.02
2022-11-15T23:08:33.385Z,8.80
2022-11-15T23:11:19.451Z,8.57
2022-11-15T23:13:47.474Z,8.13
2022-11-15T23:16:23.282Z,8.27
2022-11-15T23:18:54.067Z,8.57
2022-11-15T23:21:37.815Z,9.27
2022-11-15T23:24:06.524Z,9.00
2022-11-15T23:26:34.404Z,9.40
2022-11-15T23:29:02.307Z,9.10
2022-11-15T23:31:48.950Z,9.20
2022-11-15T23:34:22.475Z,8.88
2022-11-15T23:36:50.466Z,8.73
2022-11-15T23:39:18.469Z,9.55
2022-11-15T23:41:46.412Z,8.73
2022-11-15T23:44:14.328Z,9.00
2022-11-15T23:46:42.238Z,10.65
2022-11-15T23:49:10.249Z,10.68
2022-11-15T23:51:39.523Z,12.23
2022-11-15T23:54:07.972Z,14.50
2022-11-15T23:56:36.645Z,12.48
2022-11-15T23:59:04.901Z,13.10
